createdAt,value
2023-04-15T00:00:50.874Z,987.38
2023-04-15T00:01:50.899Z,987.44
2023-04-15T00:02:50.818Z,987.49
2023-04-15T00:03:50.909Z,987.50
2023-04-15T00:04:50.863Z,987.46
2023-04-15T00:05:50.802Z,987.50
2023-04-15T00:06:50.816Z,987.49
2023-04-15T00:07:50.707Z,987.44
2023-04-15T00:08:50.684Z,987.44
2023-04-15T00:09:52.691Z,987.49
2023-04-15T00:10:50.697Z,987.47
2023-04-15T00:11:50.750Z,987.46
2023-04-15T00:12:53.587Z,987.44
2023-04-15T00:13:50.654Z,987.42
2023-04-15T00:14:50.801Z,987.49
2023-04-15T00:15:50.721Z,987.48
2023-04-15T00:16:50.729Z,987.34
2023-04-15T00:17:50.767Z,987.45
2023-04-15T00:19:47.593Z,987.32
2023-04-15T00:19:50.581Z,987.30
2023-04-15T00:20:51.727Z,987.39
2023-04-15T00:21:51.669Z,987.24
2023-04-15T00:23:55.054Z,987.36
2023-04-15T00:23:56.727Z,987.36
2023-04-15T00:24:56.855Z,987.31
2023-04-15T00:25:56.749Z,987.29
2023-04-15T00:26:56.893Z,987.36
2023-04-15T00:27:56.682Z,987.38
2023-04-15T00:28:56.752Z,987.46
2023-04-15T00:29:56.791Z,987.39
2023-04-15T00:30:56.744Z,987.36
2023-04-15T00:31:56.758Z,987.28
2023-04-15T00:32:56.860Z,987.37
2023-04-15T00:33:57.770Z,987.39
2023-04-15T00:36:11.498Z,987.43
2023-04-15T00:37:12.309Z,987.36
2023-04-15T00:38:11.761Z,987.43
2023-04-15T00:39:11.705Z,987.38
2023-04-15T00:40:11.727Z,987.39
2023-04-15T00:41:11.701Z,987.38
2023-04-15T00:42:11.646Z,987.45
2023-04-15T00:43:11.612Z,987.40
2023-04-15T00:44:11.639Z,987.37
2023-04-15T00:45:11.601Z,987.41
2023-04-15T00:46:11.670Z,987.40
2023-04-15T00:47:11.753Z,987.43
2023-04-15T00:48:11.593Z,987.46
2023-04-15T00:49:11.558Z,987.46
2023-04-15T00:50:11.501Z,987.42
2023-04-15T00:51:11.552Z,987.37
2023-04-15T00:52:11.601Z,987.46
2023-04-15T00:53:11.664Z,987.39
2023-04-15T00:54:11.674Z,987.32
2023-04-15T00:55:11.473Z,987.36
2023-04-15T00:56:11.550Z,987.32
2023-04-15T00:57:11.730Z,987.35
2023-04-15T00:58:11.503Z,987.32
2023-04-15T00:59:11.637Z,987.33
2023-04-15T01:00:11.521Z,987.35
2023-04-15T01:01:11.719Z,987.34
2023-04-15T01:03:03.326Z,987.34
2023-04-15T01:03:11.478Z,987.34
2023-04-15T01:04:11.535Z,987.39
2023-04-15T01:05:11.475Z,987.34
2023-04-15T01:06:11.499Z,987.37
2023-04-15T01:07:11.419Z,987.30
2023-04-15T01:08:11.497Z,987.27
2023-04-15T01:09:11.441Z,987.34
2023-04-15T01:10:11.461Z,987.29
2023-04-15T01:11:11.496Z,987.27
2023-04-15T01:12:11.289Z,987.32
2023-04-15T01:13:11.439Z,987.35
2023-04-15T01:14:11.412Z,987.31
2023-04-15T01:15:11.302Z,987.35
2023-04-15T01:16:11.382Z,987.31
2023-04-15T01:17:11.274Z,987.30
2023-04-15T01:18:11.504Z,987.41
2023-04-15T01:19:11.362Z,987.41
2023-04-15T01:20:11.479Z,987.36
2023-04-15T01:21:11.313Z,987.35
2023-04-15T01:22:11.472Z,987.28
2023-04-15T01:23:11.358Z,987.33
2023-04-15T01:24:11.338Z,987.27
2023-04-15T01:25:11.328Z,987.28
2023-04-15T01:26:11.316Z,987.21
2023-04-15T01:27:11.287Z,987.33
2023-04-15T01:28:11.237Z,987.30
2023-04-15T01:29:11.286Z,987.38
2023-04-15T01:30:11.272Z,987.26
2023-04-15T01:31:11.367Z,987.31
2023-04-15T01:32:11.254Z,987.30
2023-04-15T01:33:11.330Z,987.27
2023-04-15T01:34:11.267Z,987.32
2023-04-15T01:35:13.130Z,987.24
2023-04-15T01:36:11.259Z,987.34
2023-04-15T01:37:11.228Z,987.23
2023-04-15T01:38:11.234Z,987.30
2023-04-15T01:39:11.241Z,987.26
2023-04-15T01:40:11.644Z,987.28
2023-04-15T01:41:11.307Z,987.18
2023-04-15T01:42:11.331Z,987.25
2023-04-15T01:43:11.344Z,987.26
2023-04-15T01:44:11.170Z,987.21
2023-04-15T01:45:11.092Z,987.20
2023-04-15T01:46:11.341Z,987.21
2023-04-15T01:47:11.102Z,987.23
2023-04-15T01:48:11.118Z,987.21
2023-04-15T01:49:11.074Z,987.23
2023-04-15T01:50:11.059Z,987.27
2023-04-15T01:51:11.138Z,987.15
2023-04-15T01:52:11.080Z,987.21
2023-04-15T01:53:11.082Z,987.17
2023-04-15T01:54:12.140Z,987.16
2023-04-15T01:55:11.112Z,987.17
2023-04-15T01:56:11.168Z,987.11
2023-04-15T01:57:11.201Z,987.14
2023-04-15T01:58:11.117Z,987.11
2023-04-15T01:59:11.130Z,987.10
2023-04-15T02:00:11.082Z,987.14
2023-04-15T02:01:11.166Z,987.17
2023-04-15T02:02:11.258Z,987.17
2023-04-15T02:03:11.118Z,987.20
2023-04-15T02:04:11.206Z,987.27
2023-04-15T02:05:11.103Z,987.20
2023-04-15T02:06:10.937Z,987.21
2023-04-15T02:07:11.086Z,987.27
2023-04-15T02:08:11.021Z,987.18
2023-04-15T02:09:10.999Z,987.23
2023-04-15T02:10:12.070Z,987.17
2023-04-15T02:11:11.169Z,987.18
2023-04-15T02:12:11.006Z,987.19
2023-04-15T02:13:11.026Z,987.18
2023-04-15T02:14:10.987Z,987.17
2023-04-15T02:15:10.998Z,987.17
2023-04-15T02:16:11.005Z,987.17
2023-04-15T02:17:10.983Z,987.18
2023-04-15T02:18:10.950Z,987.14
2023-04-15T02:19:11.042Z,987.11
2023-04-15T02:20:10.957Z,987.15
2023-04-15T02:21:10.898Z,987.15
2023-04-15T02:22:10.821Z,987.14
2023-04-15T02:23:10.845Z,987.09
2023-04-15T02:24:11.010Z,987.07
2023-04-15T02:25:10.970Z,987.16
2023-04-15T02:26:10.881Z,987.16
2023-04-15T02:27:10.985Z,987.19
2023-04-15T02:28:28.714Z,987.14
2023-04-15T02:29:11.926Z,987.09
2023-04-15T02:30:10.861Z,987.14
2023-04-15T02:31:10.946Z,987.06
2023-04-15T02:32:11.008Z,987.17
2023-04-15T02:33:10.978Z,987.11
2023-04-15T02:34:10.861Z,987.07
2023-04-15T02:35:10.906Z,987.10
2023-04-15T02:36:10.817Z,987.16
2023-04-15T02:37:10.818Z,987.19
2023-04-15T02:38:10.832Z,987.16
2023-04-15T02:39:10.763Z,987.20
2023-04-15T02:40:10.801Z,987.19
2023-04-15T02:41:10.759Z,987.25
2023-04-15T02:42:10.711Z,987.27
2023-04-15T02:43:10.721Z,987.25
2023-04-15T02:44:11.499Z,987.21
2023-04-15T02:45:10.717Z,987.25
2023-04-15T02:46:11.049Z,987.25
2023-04-15T02:47:10.688Z,987.23
2023-04-15T02:48:10.707Z,987.13
2023-04-15T02:49:10.775Z,987.22
2023-04-15T02:50:10.806Z,987.13
2023-04-15T02:51:10.791Z,987.08
2023-04-15T02:52:10.887Z,987.10
2023-04-15T02:53:10.704Z,987.16
2023-04-15T02:54:11.750Z,987.16
2023-04-15T02:55:10.775Z,987.18
2023-04-15T02:56:10.866Z,987.21
2023-04-15T02:57:10.691Z,987.14
2023-04-15T02:58:10.709Z,987.16
2023-04-15T02:59:10.632Z,987.18
2023-04-15T03:00:10.583Z,987.14
2023-04-15T03:01:10.597Z,987.14
2023-04-15T03:02:10.731Z,987.18
2023-04-15T03:03:10.852Z,987.14
2023-04-15T03:04:10.648Z,987.11
2023-04-15T03:05:10.545Z,987.15
2023-04-15T03:06:10.607Z,987.25
2023-04-15T03:07:10.637Z,987.18
2023-04-15T03:08:10.576Z,987.19
2023-04-15T03:09:10.611Z,987.18
2023-04-15T03:10:10.591Z,987.19
2023-04-15T03:11:10.694Z,987.23
2023-04-15T03:12:10.687Z,987.10
2023-04-15T03:13:11.669Z,987.25
2023-04-15T03:14:10.587Z,987.22
2023-04-15T03:15:10.653Z,987.20
2023-04-15T03:16:10.652Z,987.19
2023-04-15T03:17:10.640Z,987.19
2023-04-15T03:18:10.576Z,987.26
2023-04-15T03:19:10.731Z,987.19
2023-04-15T03:20:10.637Z,987.23
2023-04-15T03:21:10.560Z,987.16
2023-04-15T03:22:10.525Z,987.11
2023-04-15T03:23:10.475Z,987.15
2023-04-15T03:24:10.475Z,987.11
2023-04-15T03:25:10.460Z,987.09
2023-04-15T03:26:10.498Z,987.12
2023-04-15T03:27:10.378Z,987.22
2023-04-15T03:28:10.473Z,987.11
2023-04-15T03:29:10.519Z,987.13
2023-04-15T03:30:10.435Z,987.12
2023-04-15T03:31:10.481Z,987.03
2023-04-15T03:32:10.446Z,987.05
2023-04-15T03:33:10.468Z,987.15
2023-04-15T03:34:10.422Z,987.09
2023-04-15T03:35:10.471Z,987.05
2023-04-15T03:36:10.448Z,987.07
2023-04-15T03:37:10.426Z,987.08
2023-04-15T03:38:10.508Z,987.20
2023-04-15T03:39:11.362Z,987.13
2023-04-15T03:40:10.523Z,987.15
2023-04-15T03:41:10.325Z,987.17
2023-04-15T03:42:10.405Z,987.15
2023-04-15T03:43:10.304Z,987.12
2023-04-15T03:44:10.317Z,987.14
2023-04-15T03:45:10.298Z,987.15
2023-04-15T03:46:10.851Z,987.16
2023-04-15T03:47:10.299Z,987.19
2023-04-15T03:48:16.487Z,987.17
2023-04-15T03:49:12.262Z,987.15
2023-04-15T03:50:10.259Z,987.15
2023-04-15T03:51:10.376Z,987.14
2023-04-15T03:52:10.366Z,987.23
2023-04-15T03:53:10.275Z,987.19
2023-04-15T03:54:10.260Z,987.19
2023-04-15T03:55:10.324Z,987.14
2023-04-15T03:56:10.264Z,987.22
2023-04-15T03:57:10.356Z,987.24
2023-04-15T03:58:10.244Z,987.27
2023-04-15T03:59:10.326Z,987.20
2023-04-15T04:00:10.258Z,987.31
2023-04-15T04:01:10.290Z,987.23
2023-04-15T04:02:10.334Z,987.29
2023-04-15T04:03:10.529Z,987.32
2023-04-15T04:04:10.185Z,987.31
2023-04-15T04:05:10.145Z,987.24
2023-04-15T04:06:10.160Z,987.24
2023-04-15T04:07:10.321Z,987.26
2023-04-15T04:08:10.227Z,987.24
2023-04-15T04:09:10.246Z,987.27
2023-04-15T04:10:10.219Z,987.30
2023-04-15T04:11:10.166Z,987.30
2023-04-15T04:12:10.156Z,987.30
2023-04-15T04:13:10.235Z,987.26
2023-04-15T04:14:10.175Z,987.27
2023-04-15T04:15:10.216Z,987.36
2023-04-15T04:16:10.287Z,987.26
2023-04-15T04:17:10.176Z,987.35
2023-04-15T04:18:10.514Z,987.35
2023-04-15T04:19:11.140Z,987.33
2023-04-15T04:20:10.162Z,987.36
2023-04-15T04:21:10.154Z,987.30
2023-04-15T04:22:10.114Z,987.23
2023-04-15T04:23:10.007Z,987.27
2023-04-15T04:24:10.075Z,987.28
2023-04-15T04:25:10.023Z,987.27
2023-04-15T04:26:10.142Z,987.28
2023-04-15T04:27:10.086Z,987.33
2023-04-15T04:28:10.169Z,987.23
2023-04-15T04:29:10.177Z,987.26
2023-04-15T04:30:10.116Z,987.26
2023-04-15T04:31:11.091Z,987.24
2023-04-15T04:32:10.228Z,987.28
2023-04-15T04:33:10.111Z,987.22
2023-04-15T04:34:10.048Z,987.32
2023-04-15T04:35:10.128Z,987.28
2023-04-15T04:36:09.957Z,987.20
2023-04-15T04:37:10.040Z,987.33
2023-04-15T04:38:10.058Z,987.27
2023-04-15T04:39:10.080Z,987.23
2023-04-15T04:40:10.080Z,987.27
2023-04-15T04:41:09.972Z,987.30
2023-04-15T04:42:10.059Z,987.32
2023-04-15T04:43:10.050Z,987.29
2023-04-15T04:44:09.962Z,987.30
2023-04-15T04:45:09.909Z,987.30
2023-04-15T04:46:09.917Z,987.34
2023-04-15T04:47:09.882Z,987.27
2023-04-15T04:48:09.866Z,987.36
2023-04-15T04:49:09.862Z,987.39
2023-04-15T04:50:09.881Z,987.32
2023-04-15T04:51:10.461Z,987.32
2023-04-15T04:52:09.930Z,987.33
2023-04-15T04:53:09.852Z,987.35
2023-04-15T04:54:09.924Z,987.37
2023-04-15T04:55:09.841Z,987.42
2023-04-15T04:56:09.868Z,987.36
2023-04-15T04:57:09.895Z,987.47
2023-04-15T04:58:09.869Z,987.43
2023-04-15T04:59:09.852Z,987.35
2023-04-15T05:00:09.879Z,987.44
2023-04-15T05:01:09.888Z,987.51
2023-04-15T05:02:09.927Z,987.47
2023-04-15T05:03:09.951Z,987.46
2023-04-15T05:04:10.002Z,987.48
2023-04-15T05:05:09.793Z,987.47
2023-04-15T05:06:09.699Z,987.48
2023-04-15T05:07:09.776Z,987.59
2023-04-15T05:08:10.287Z,987.49
2023-04-15T05:09:09.729Z,987.48
2023-04-15T05:10:09.666Z,987.43
2023-04-15T05:11:09.785Z,987.48
2023-04-15T05:12:09.857Z,987.53
2023-04-15T05:13:09.805Z,987.49
2023-04-15T05:14:09.841Z,987.45
2023-04-15T05:15:09.717Z,987.44
2023-04-15T05:16:09.762Z,987.41
2023-04-15T05:17:09.751Z,987.51
2023-04-15T05:18:09.761Z,987.41
2023-04-15T05:19:09.738Z,987.52
2023-04-15T05:20:09.612Z,987.59
2023-04-15T05:21:09.641Z,987.61
2023-04-15T05:22:09.677Z,987.60
2023-04-15T05:23:09.638Z,987.58
2023-04-15T05:24:09.757Z,987.60
2023-04-15T05:25:09.643Z,987.64
2023-04-15T05:26:09.647Z,987.66
2023-04-15T05:27:09.642Z,987.57
2023-04-15T05:28:09.625Z,987.58
2023-04-15T05:29:09.639Z,987.68
2023-04-15T05:30:11.081Z,987.61
2023-04-15T05:31:09.679Z,987.63
2023-04-15T05:32:09.666Z,987.64
2023-04-15T05:33:09.734Z,987.63
2023-04-15T05:34:39.503Z,987.62
2023-04-15T05:35:10.561Z,987.63
2023-04-15T05:36:09.651Z,987.64
2023-04-15T05:37:09.695Z,987.57
2023-04-15T05:38:09.589Z,987.67
2023-04-15T05:39:09.586Z,987.64
2023-04-15T05:40:09.510Z,987.65
2023-04-15T05:41:09.500Z,987.70
2023-04-15T05:42:09.461Z,987.63
2023-04-15T05:43:09.407Z,987.61
2023-04-15T05:44:09.447Z,987.57
2023-04-15T05:45:09.448Z,987.57
2023-04-15T05:46:09.538Z,987.63
2023-04-15T05:47:09.408Z,987.66
2023-04-15T05:48:09.497Z,987.72
2023-04-15T05:49:09.492Z,987.68
2023-04-15T05:50:09.555Z,987.68
2023-04-15T05:51:09.531Z,987.64
2023-04-15T05:52:09.579Z,987.64
2023-04-15T05:53:09.549Z,987.65
2023-04-15T05:54:09.541Z,987.62
2023-04-15T05:55:09.502Z,987.65
2023-04-15T05:56:09.809Z,987.63
2023-04-15T05:57:09.480Z,987.61
2023-04-15T05:58:09.539Z,987.72
2023-04-15T05:59:09.440Z,987.63
2023-04-15T06:00:09.540Z,987.63
2023-04-15T06:01:09.334Z,987.68
2023-04-15T06:02:09.443Z,987.62
2023-04-15T06:03:09.406Z,987.58
2023-04-15T06:04:09.442Z,987.62
2023-04-15T06:05:09.616Z,987.65
2023-04-15T06:06:09.384Z,987.64
2023-04-15T06:07:09.451Z,987.64
2023-04-15T06:08:09.346Z,987.65
2023-04-15T06:09:09.343Z,987.68
2023-04-15T06:10:09.384Z,987.70
2023-04-15T06:11:09.377Z,987.71
2023-04-15T06:12:09.394Z,987.62
2023-04-15T06:13:10.323Z,987.69
2023-04-15T06:14:09.330Z,987.66
2023-04-15T06:15:09.305Z,987.72
2023-04-15T06:16:09.341Z,987.67
2023-04-15T06:17:09.388Z,987.72
2023-04-15T06:18:09.352Z,987.71
2023-04-15T06:19:09.719Z,987.66
2023-04-15T06:20:09.284Z,987.69
2023-04-15T06:21:09.380Z,987.63
2023-04-15T06:22:09.304Z,987.68
2023-04-15T06:23:09.573Z,987.66
2023-04-15T06:24:09.280Z,987.65
2023-04-15T06:25:09.204Z,987.68
2023-04-15T06:26:09.404Z,987.67
2023-04-15T06:27:09.173Z,987.68
2023-04-15T06:28:09.278Z,987.61
2023-04-15T06:29:09.311Z,987.71
2023-04-15T06:30:09.206Z,987.69
2023-04-15T06:31:09.289Z,987.72
2023-04-15T06:32:09.215Z,987.68
2023-04-15T06:33:09.194Z,987.76
2023-04-15T06:34:09.253Z,987.75
2023-04-15T06:35:09.272Z,987.83
2023-04-15T06:36:09.205Z,987.79
2023-04-15T06:37:09.123Z,987.86
2023-04-15T06:38:09.229Z,987.82
2023-04-15T06:39:09.261Z,987.80
2023-04-15T06:40:09.305Z,987.77
2023-04-15T06:41:09.132Z,987.86
2023-04-15T06:42:09.168Z,987.88
2023-04-15T06:43:09.114Z,987.86
2023-04-15T06:44:09.205Z,987.86
2023-04-15T06:45:09.124Z,987.83
2023-04-15T06:46:09.232Z,987.80
2023-04-15T06:47:09.091Z,987.88
2023-04-15T06:48:09.225Z,987.82
2023-04-15T06:49:09.110Z,987.87
2023-04-15T06:50:08.953Z,987.91
2023-04-15T06:58:56.068Z,987.92
2023-04-15T06:59:55.879Z,987.92
2023-04-15T07:02:55.488Z,987.89
2023-04-15T07:03:56.775Z,987.88
2023-04-15T07:04:56.656Z,987.90
2023-04-15T07:05:56.729Z,987.96
2023-04-15T07:06:56.654Z,987.88
2023-04-15T07:14:05.160Z,987.96
2023-04-15T07:15:06.693Z,987.89
2023-04-15T07:16:06.388Z,987.91
2023-04-15T07:17:06.357Z,987.96
2023-04-15T07:18:38.330Z,987.88
2023-04-15T07:19:06.333Z,987.86
2023-04-15T07:20:06.278Z,987.92
2023-04-15T07:21:06.257Z,987.97
2023-04-15T07:22:06.317Z,987.88
2023-04-15T07:23:06.239Z,987.90
2023-04-15T07:24:06.274Z,987.87
2023-04-15T07:25:06.290Z,987.89
2023-04-15T07:26:06.287Z,987.88
2023-04-15T07:27:06.307Z,987.86
2023-04-15T07:28:06.382Z,987.92
2023-04-15T07:29:06.319Z,987.87
2023-04-15T07:30:06.350Z,987.90
2023-04-15T07:31:06.269Z,987.90
2023-04-15T07:32:06.312Z,987.85
2023-04-15T07:33:06.243Z,987.88
2023-04-15T07:34:06.317Z,987.91
2023-04-15T07:35:06.264Z,987.86
2023-04-15T07:36:06.397Z,987.85
2023-04-15T07:37:06.224Z,987.80
2023-04-15T07:38:06.192Z,987.78
2023-04-15T07:39:06.231Z,987.83
2023-04-15T07:40:06.204Z,987.80
2023-04-15T07:41:06.314Z,987.85
2023-04-15T07:42:06.346Z,987.80
2023-04-15T07:43:06.333Z,987.79
2023-04-15T07:44:06.099Z,987.86
2023-04-15T07:45:06.132Z,987.79
2023-04-15T07:46:06.104Z,987.86
2023-04-15T07:47:06.128Z,987.89
2023-04-15T07:48:06.020Z,987.90
2023-04-15T07:49:06.095Z,987.86
2023-04-15T07:50:06.067Z,987.91
2023-04-15T07:51:06.110Z,987.89
2023-04-15T07:52:06.192Z,987.89
2023-04-15T07:53:06.147Z,987.93
2023-04-15T07:54:06.147Z,987.85
2023-04-15T07:55:25.386Z,987.95
2023-04-15T07:56:05.980Z,987.90
2023-04-15T07:57:06.186Z,987.88
2023-04-15T07:58:06.177Z,987.88
2023-04-15T07:59:06.250Z,987.91
2023-04-15T08:00:06.140Z,987.88
2023-04-15T08:01:06.188Z,987.92
2023-04-15T08:02:06.180Z,987.84
2023-04-15T08:03:06.489Z,987.91
2023-04-15T08:04:06.245Z,987.92
2023-04-15T08:05:06.104Z,987.92
2023-04-15T08:06:06.093Z,987.85
2023-04-15T08:07:06.195Z,987.87
2023-04-15T08:08:05.925Z,987.92
2023-04-15T08:09:06.026Z,987.95
2023-04-15T08:10:05.948Z,987.87
2023-04-15T08:11:05.896Z,987.92
2023-04-15T08:12:05.915Z,987.86
2023-04-15T08:13:06.008Z,987.79
2023-04-15T08:14:05.989Z,987.76
2023-04-15T08:15:06.005Z,987.85
2023-04-15T08:16:06.106Z,987.82
2023-04-15T08:17:05.998Z,987.87
2023-04-15T08:18:06.191Z,987.85
2023-04-15T08:19:05.947Z,987.83
2023-04-15T08:20:06.042Z,987.79
2023-04-15T08:21:05.988Z,987.83
2023-04-15T08:22:06.116Z,987.83
2023-04-15T08:23:05.980Z,987.80
2023-04-15T08:24:06.145Z,987.77
2023-04-15T08:25:06.214Z,987.78
2023-04-15T08:26:07.002Z,987.78
2023-04-15T08:27:05.931Z,987.82
2023-04-15T08:28:05.899Z,987.75
2023-04-15T08:29:06.149Z,987.85
2023-04-15T08:30:05.884Z,987.86
2023-04-15T08:31:06.069Z,987.79
2023-04-15T08:32:05.746Z,987.78
2023-04-15T08:33:05.814Z,987.82
2023-04-15T08:34:05.786Z,987.87
2023-04-15T08:35:05.808Z,987.80
2023-04-15T08:36:05.878Z,987.83
2023-04-15T08:37:06.099Z,987.81
2023-04-15T08:38:05.772Z,987.76
2023-04-15T08:39:05.816Z,987.80
2023-04-15T08:40:05.804Z,987.76
2023-04-15T08:41:05.830Z,987.75
2023-04-15T08:42:05.905Z,987.74
2023-04-15T08:43:05.817Z,987.70
2023-04-15T08:44:05.745Z,987.73
2023-04-15T08:45:05.868Z,987.78
2023-04-15T08:46:05.738Z,987.77
2023-04-15T08:47:06.940Z,987.84
2023-04-15T08:48:05.782Z,987.80
2023-04-15T08:49:05.650Z,987.79
2023-04-15T08:50:05.805Z,987.85
2023-04-15T08:51:05.761Z,987.85
2023-04-15T08:52:05.674Z,987.85
2023-04-15T08:53:05.795Z,987.80
2023-04-15T08:54:05.825Z,987.89
2023-04-15T08:55:05.835Z,987.87
2023-04-15T08:56:05.913Z,987.81
2023-04-15T08:57:06.158Z,987.83
2023-04-15T08:58:06.467Z,987.86
2023-04-15T09:01:03.931Z,987.83
2023-04-15T09:02:42.587Z,987.80
2023-04-15T09:03:05.062Z,987.95
2023-04-15T09:04:05.727Z,987.75
2023-04-15T09:05:05.618Z,987.79
2023-04-15T09:08:13.287Z,987.80
2023-04-15T09:09:15.520Z,987.74
2023-04-15T09:12:12.141Z,987.82
2023-04-15T09:13:13.319Z,987.70
2023-04-15T09:14:14.242Z,987.74
2023-04-15T09:15:12.910Z,987.77
2023-04-15T09:16:13.164Z,987.85
2023-04-15T09:17:13.250Z,987.80
2023-04-15T09:18:13.048Z,987.80
2023-04-15T09:19:13.841Z,987.76
2023-04-15T09:20:12.855Z,987.91
2023-04-15T09:21:13.277Z,987.78
2023-04-15T09:22:12.873Z,987.84
2023-04-15T09:23:12.886Z,987.82
2023-04-15T09:24:12.865Z,987.80
2023-04-15T09:25:12.876Z,987.86
2023-04-15T09:26:12.879Z,987.90
2023-04-15T09:27:12.913Z,987.93
2023-04-15T09:28:12.847Z,987.90
2023-04-15T09:29:12.878Z,987.99
2023-04-15T09:30:12.758Z,987.98
2023-04-15T09:31:21.482Z,987.96
2023-04-15T09:32:13.067Z,988.01
2023-04-15T09:33:13.037Z,988.08
2023-04-15T09:34:13.066Z,988.07
2023-04-15T09:35:12.816Z,988.09
2023-04-15T09:36:12.992Z,988.06
2023-04-15T09:38:12.678Z,988.10
2023-04-15T09:39:12.733Z,988.15
2023-04-15T09:40:12.694Z,988.08
2023-04-15T09:41:12.650Z,988.19
2023-04-15T09:42:12.743Z,988.15
2023-04-15T09:43:12.647Z,988.14
2023-04-15T09:44:12.743Z,988.13
2023-04-15T09:45:14.004Z,988.18
2023-04-15T09:46:12.621Z,988.16
2023-04-15T09:47:12.624Z,988.13
2023-04-15T09:48:12.713Z,988.22
2023-04-15T09:49:12.588Z,988.18
2023-04-15T09:50:12.733Z,988.17
2023-04-15T09:51:12.986Z,988.19
2023-04-15T09:52:12.841Z,988.18
2023-04-15T09:53:12.632Z,988.19
2023-04-15T09:54:12.779Z,988.17
2023-04-15T09:55:12.574Z,988.24
2023-04-15T09:56:12.741Z,988.18
2023-04-15T09:57:12.674Z,988.17
2023-04-15T09:58:14.326Z,988.22
2023-04-15T09:59:13.304Z,988.22
2023-04-15T10:00:13.346Z,988.21
2023-04-15T10:01:12.682Z,988.20
2023-04-15T10:02:12.840Z,988.29
2023-04-15T10:03:13.022Z,988.26
2023-04-15T10:04:12.787Z,988.26
2023-04-15T10:05:12.810Z,988.27
2023-04-15T10:06:12.580Z,988.27
2023-04-15T10:07:12.863Z,988.26
2023-04-15T10:08:12.652Z,988.25
2023-04-15T10:09:12.938Z,988.25
2023-04-15T10:10:12.572Z,988.26
2023-04-15T10:11:12.647Z,988.25
2023-04-15T10:12:12.973Z,988.32
2023-04-15T10:13:12.598Z,988.23
2023-04-15T10:14:14.530Z,988.34
2023-04-15T10:15:12.498Z,988.28
2023-04-15T10:16:12.636Z,988.31
2023-04-15T10:17:12.684Z,988.36
2023-04-15T10:18:13.058Z,988.35
2023-04-15T10:19:13.019Z,988.35
2023-04-15T10:20:13.657Z,988.34
2023-04-15T10:21:12.907Z,988.33
2023-04-15T10:22:12.595Z,988.26
2023-04-15T10:23:13.493Z,988.31
2023-04-15T10:24:13.492Z,988.30
2023-04-15T10:25:12.709Z,988.37
2023-04-15T10:26:12.759Z,988.34
2023-04-15T10:27:12.622Z,988.38
2023-04-15T10:28:12.613Z,988.38
2023-04-15T10:29:12.499Z,988.38
2023-04-15T10:30:13.075Z,988.41
2023-04-15T10:31:12.970Z,988.45
2023-04-15T10:32:12.707Z,988.42
2023-04-15T10:33:12.696Z,988.38
2023-04-15T10:34:12.531Z,988.39
2023-04-15T10:35:12.439Z,988.44
2023-04-15T10:36:12.617Z,988.48
2023-04-15T10:37:12.403Z,988.42
2023-04-15T10:38:12.807Z,988.49
2023-04-15T10:39:12.981Z,988.53
2023-04-15T10:40:12.660Z,988.44
2023-04-15T10:41:12.697Z,988.48
2023-04-15T10:42:13.017Z,988.47
2023-04-15T10:43:12.809Z,988.43
2023-04-15T10:44:12.653Z,988.51
2023-04-15T10:45:12.582Z,988.43
2023-04-15T10:46:13.203Z,988.46
2023-04-15T10:47:12.839Z,988.45
2023-04-15T10:48:12.638Z,988.42
2023-04-15T10:49:12.930Z,988.57
2023-04-15T10:50:12.634Z,988.42
2023-04-15T10:51:12.682Z,988.55
2023-04-15T10:52:12.211Z,988.54
2023-04-15T10:53:12.586Z,988.58
2023-04-15T10:54:12.954Z,988.58
2023-04-15T10:55:12.761Z,988.54
2023-04-15T10:56:12.843Z,988.55
2023-04-15T10:57:12.926Z,988.55
2023-04-15T10:58:12.696Z,988.57
2023-04-15T10:59:12.785Z,988.63
2023-04-15T11:00:12.977Z,988.63
2023-04-15T11:01:12.602Z,988.61
2023-04-15T11:02:12.287Z,988.57
2023-04-15T11:03:12.452Z,988.62
2023-04-15T11:04:12.650Z,988.64
2023-04-15T11:05:12.536Z,988.63
2023-04-15T11:06:12.663Z,988.65
2023-04-15T11:07:12.802Z,988.62
2023-04-15T11:08:13.939Z,988.63
2023-04-15T11:09:12.755Z,988.62
2023-04-15T11:10:12.749Z,988.70
2023-04-15T11:11:12.359Z,988.73
2023-04-15T11:12:12.179Z,988.69
2023-04-15T11:13:13.168Z,988.68
2023-04-15T11:14:12.691Z,988.68
2023-04-15T11:15:12.836Z,988.70
2023-04-15T11:16:12.789Z,988.60
2023-04-15T11:17:12.656Z,988.73
2023-04-15T11:18:12.674Z,988.76
2023-04-15T11:19:13.842Z,988.85
2023-04-15T11:20:12.672Z,988.79
2023-04-15T11:21:12.471Z,988.77
2023-04-15T11:22:12.603Z,988.83
2023-04-15T11:23:15.151Z,988.76
2023-04-15T11:24:12.774Z,988.80
2023-04-15T11:25:12.575Z,988.84
2023-04-15T11:26:13.681Z,988.87
2023-04-15T11:27:12.677Z,988.82
2023-04-15T11:28:12.498Z,988.78
2023-04-15T11:29:12.674Z,988.89
2023-04-15T11:30:13.108Z,988.87
2023-04-15T11:31:12.187Z,988.88
2023-04-15T11:32:12.839Z,988.87
2023-04-15T11:33:12.345Z,988.84
2023-04-15T11:34:12.080Z,988.88
2023-04-15T11:35:12.737Z,988.85
2023-04-15T11:36:13.808Z,988.92
2023-04-15T11:37:12.563Z,988.92
2023-04-15T11:38:12.533Z,988.89
2023-04-15T11:39:12.581Z,988.89
2023-04-15T11:40:12.519Z,988.81
2023-04-15T11:41:12.269Z,988.91
2023-04-15T11:42:12.350Z,988.91
2023-04-15T11:43:12.547Z,988.86
2023-04-15T11:44:12.539Z,988.90
2023-04-15T11:45:12.391Z,988.90
2023-04-15T11:46:12.740Z,988.98
2023-04-15T11:47:12.541Z,989.00
2023-04-15T11:48:12.698Z,989.00
2023-04-15T11:49:12.338Z,989.03
2023-04-15T11:50:12.314Z,989.07
2023-04-15T11:51:12.653Z,989.04
2023-04-15T11:52:12.772Z,989.02
2023-04-15T11:53:12.391Z,989.04
2023-04-15T11:54:12.228Z,988.97
2023-04-15T11:55:12.221Z,989.00
2023-04-15T11:56:12.064Z,988.97
2023-04-15T11:57:12.536Z,988.99
2023-04-15T11:58:12.857Z,988.97
2023-04-15T11:59:12.142Z,989.07
2023-04-15T12:00:12.081Z,989.01
2023-04-15T12:01:12.460Z,989.09
2023-04-15T12:02:12.419Z,989.07
2023-04-15T12:03:12.740Z,989.09
2023-04-15T12:04:12.368Z,989.06
2023-04-15T12:05:12.430Z,989.13
2023-04-15T12:06:12.423Z,989.14
2023-04-15T12:07:12.258Z,989.11
2023-04-15T12:08:12.413Z,989.13
2023-04-15T12:09:12.315Z,989.15
2023-04-15T12:10:12.287Z,989.14
2023-04-15T12:11:12.270Z,989.22
2023-04-15T12:12:12.403Z,989.10
2023-04-15T12:13:12.269Z,989.18
2023-04-15T12:14:12.812Z,989.16
2023-04-15T12:15:12.320Z,989.16
2023-04-15T12:16:12.039Z,989.22
2023-04-15T12:17:11.835Z,989.07
2023-04-15T12:18:12.118Z,989.16
2023-04-15T12:19:12.105Z,989.20
2023-04-15T12:20:12.019Z,989.20
2023-04-15T12:21:11.818Z,989.31
2023-04-15T12:22:12.335Z,989.22
2023-04-15T12:23:11.719Z,989.19
2023-04-15T12:24:11.673Z,989.25
2023-04-15T12:25:11.864Z,989.21
2023-04-15T12:26:11.988Z,989.33
2023-04-15T12:27:12.055Z,989.34
2023-04-15T12:28:12.113Z,989.30
2023-04-15T12:29:11.923Z,989.31
2023-04-15T12:30:11.865Z,989.42
2023-04-15T12:31:11.705Z,989.35
2023-04-15T12:32:11.692Z,989.39
2023-04-15T12:33:11.607Z,989.42
2023-04-15T12:34:17.680Z,989.42
2023-04-15T12:35:12.766Z,989.34
2023-04-15T12:36:11.754Z,989.42
2023-04-15T12:37:12.040Z,989.42
2023-04-15T12:38:11.527Z,989.48
2023-04-15T12:39:11.704Z,989.48
2023-04-15T12:40:11.663Z,989.51
2023-04-15T12:41:11.703Z,989.51
2023-04-15T12:42:11.383Z,989.56
2023-04-15T12:43:11.438Z,989.52
2023-04-15T12:44:12.524Z,989.52
2023-04-15T12:45:11.603Z,989.54
2023-04-15T12:46:11.621Z,989.45
2023-04-15T12:47:11.902Z,989.56
2023-04-15T12:48:11.828Z,989.55
2023-04-15T12:49:11.865Z,989.54
2023-04-15T12:50:11.799Z,989.60
2023-04-15T12:51:11.529Z,989.59
2023-04-15T12:52:11.576Z,989.53
2023-04-15T12:53:11.517Z,989.58